sensor_id;sensor_type;location;lat;lon;timestamp;temperature;humidity
70851;DHT22;58475;49.662;9.636;2023-08-31T00:00:10;14.10;94.30
70851;DHT22;58475;49.662;9.636;2023-08-31T00:02:39;14.13;95.14
70851;DHT22;58475;49.662;9.636;2023-08-31T00:05:04;14.12;95.00
70851;DHT22;58475;49.662;9.636;2023-08-31T00:07:30;14.07;94.61
70851;DHT22;58475;49.662;9.636;2023-08-31T00:09:56;14.09;94.56
70851;DHT22;58475;49.662;9.636;2023-08-31T00:12:21;14.00;95.79
70851;DHT22;58475;49.662;9.636;2023-08-31T00:14:52;13.95;95.52
70851;DHT22;58475;49.662;9.636;2023-08-31T00:17:18;14.10;93.35
70851;DHT22;58475;49.662;9.636;2023-08-31T00:19:43;14.21;93.36
70851;DHT22;58475;49.662;9.636;2023-08-31T00:22:10;13.99;93.39
70851;DHT22;58475;49.662;9.636;2023-08-31T00:24:35;13.96;94.57
70851;DHT22;58475;49.662;9.636;2023-08-31T00:27:03;13.90;93.69
70851;DHT22;58475;49.662;9.636;2023-08-31T00:29:29;13.93;94.01
70851;DHT22;58475;49.662;9.636;2023-08-31T00:31:55;13.59;95.17
70851;DHT22;58475;49.662;9.636;2023-08-31T00:34:21;13.47;95.88
70851;DHT22;58475;49.662;9.636;2023-08-31T00:36:47;13.57;95.97
70851;DHT22;58475;49.662;9.636;2023-08-31T00:39:14;13.76;94.35
70851;DHT22;58475;49.662;9.636;2023-08-31T00:41:41;13.79;95.07
70851;DHT22;58475;49.662;9.636;2023-08-31T00:44:07;13.55;95.43
70851;DHT22;58475;49.662;9.636;2023-08-31T00:46:34;13.28;95.81
70851;DHT22;58475;49.662;9.636;2023-08-31T00:49:00;13.10;96.31
70851;DHT22;58475;49.662;9.636;2023-08-31T00:51:30;13.17;96.66
70851;DHT22;58475;49.662;9.636;2023-08-31T00:53:56;13.07;96.47
70851;DHT22;58475;49.662;9.636;2023-08-31T00:56:24;12.94;96.18
70851;DHT22;58475;49.662;9.636;2023-08-31T00:58:51;12.96;96.57
70851;DHT22;58475;49.662;9.636;2023-08-31T01:01:43;13.12;95.96
70851;DHT22;58475;49.662;9.636;2023-08-31T01:09:46;13.31;94.63
70851;DHT22;58475;49.662;9.636;2023-08-31T01:12:18;13.34;94.65
70851;DHT22;58475;49.662;9.636;2023-08-31T01:14:55;13.49;94.16
70851;DHT22;58475;49.662;9.636;2023-08-31T01:17:26;13.44;93.38
70851;DHT22;58475;49.662;9.636;2023-08-31T01:19:54;13.57;93.31
70851;DHT22;58475;49.662;9.636;2023-08-31T01:22:29;13.54;93.27
70851;DHT22;58475;49.662;9.636;2023-08-31T01:24:56;13.57;92.93
70851;DHT22;58475;49.662;9.636;2023-08-31T01:27:23;13.70;93.33
70851;DHT22;58475;49.662;9.636;2023-08-31T01:29:49;13.61;92.59
70851;DHT22;58475;49.662;9.636;2023-08-31T01:32:14;13.62;92.43
70851;DHT22;58475;49.662;9.636;2023-08-31T01:34:40;13.69;92.59
70851;DHT22;58475;49.662;9.636;2023-08-31T01:37:14;13.51;94.04
70851;DHT22;58475;49.662;9.636;2023-08-31T01:39:56;13.42;93.73
70851;DHT22;58475;49.662;9.636;2023-08-31T01:42:23;13.42;92.72
70851;DHT22;58475;49.662;9.636;2023-08-31T01:44:51;13.39;92.65
70851;DHT22;58475;49.662;9.636;2023-08-31T01:47:19;13.48;92.61
70851;DHT22;58475;49.662;9.636;2023-08-31T01:49:44;13.48;92.98
70851;DHT22;58475;49.662;9.636;2023-08-31T01:52:10;13.52;92.74
70851;DHT22;58475;49.662;9.636;2023-08-31T01:54:36;13.54;92.65
70851;DHT22;58475;49.662;9.636;2023-08-31T01:57:03;13.34;92.92
70851;DHT22;58475;49.662;9.636;2023-08-31T01:59:28;13.38;93.07
70851;DHT22;58475;49.662;9.636;2023-08-31T02:01:54;13.17;93.29
70851;DHT22;58475;49.662;9.636;2023-08-31T02:04:19;13.20;93.47
70851;DHT22;58475;49.662;9.636;2023-08-31T02:06:45;13.28;93.28
70851;DHT22;58475;49.662;9.636;2023-08-31T02:09:11;13.22;92.99
70851;DHT22;58475;49.662;9.636;2023-08-31T02:11:37;13.17;93.62
70851;DHT22;58475;49.662;9.636;2023-08-31T02:14:04;13.18;93.27
70851;DHT22;58475;49.662;9.636;2023-08-31T02:16:30;13.12;93.77
70851;DHT22;58475;49.662;9.636;2023-08-31T02:18:57;13.27;93.25
70851;DHT22;58475;49.662;9.636;2023-08-31T02:21:23;13.20;93.91
70851;DHT22;58475;49.662;9.636;2023-08-31T02:23:52;13.10;94.48
70851;DHT22;58475;49.662;9.636;2023-08-31T02:26:17;13.12;94.78
70851;DHT22;58475;49.662;9.636;2023-08-31T02:28:45;13.03;94.89
70851;DHT22;58475;49.662;9.636;2023-08-31T02:31:11;12.66;95.05
70851;DHT22;58475;49.662;9.636;2023-08-31T02:33:37;12.80;95.32
70851;DHT22;58475;49.662;9.636;2023-08-31T02:36:03;12.81;94.83
70851;DHT22;58475;49.662;9.636;2023-08-31T02:38:28;12.70;95.48
70851;DHT22;58475;49.662;9.636;2023-08-31T02:40:54;12.50;95.93
70851;DHT22;58475;49.662;9.636;2023-08-31T02:43:19;12.57;96.37
70851;DHT22;58475;49.662;9.636;2023-08-31T02:45:45;12.66;95.48
70851;DHT22;58475;49.662;9.636;2023-08-31T02:48:10;12.52;95.87
70851;DHT22;58475;49.662;9.636;2023-08-31T02:50:36;12.32;95.92
70851;DHT22;58475;49.662;9.636;2023-08-31T02:53:02;12.56;95.80
70851;DHT22;58475;49.662;9.636;2023-08-31T02:55:27;12.59;95.56
70851;DHT22;58475;49.662;9.636;2023-08-31T02:57:53;12.42;95.86
70851;DHT22;58475;49.662;9.636;2023-08-31T03:00:19;12.52;95.94
70851;DHT22;58475;49.662;9.636;2023-08-31T03:02:47;12.48;96.04
70851;DHT22;58475;49.662;9.636;2023-08-31T03:05:13;12.64;95.18
70851;DHT22;58475;49.662;9.636;2023-08-31T03:07:39;12.57;95.57
70851;DHT22;58475;49.662;9.636;2023-08-31T03:10:06;12.42;95.76
70851;DHT22;58475;49.662;9.636;2023-08-31T03:12:31;12.32;96.25
70851;DHT22;58475;49.662;9.636;2023-08-31T03:14:57;12.17;96.86
70851;DHT22;58475;49.662;9.636;2023-08-31T03:17:22;11.98;97.31
70851;DHT22;58475;49.662;9.636;2023-08-31T03:19:49;12.42;96.56
70851;DHT22;58475;49.662;9.636;2023-08-31T03:22:14;12.40;96.06
70851;DHT22;58475;49.662;9.636;2023-08-31T03:24:40;12.42;95.64
70851;DHT22;58475;49.662;9.636;2023-08-31T03:27:06;12.53;95.12
70851;DHT22;58475;49.662;9.636;2023-08-31T03:29:31;12.39;95.93
70851;DHT22;58475;49.662;9.636;2023-08-31T03:31:59;12.43;95.56
70851;DHT22;58475;49.662;9.636;2023-08-31T03:34:29;12.56;95.41
70851;DHT22;58475;49.662;9.636;2023-08-31T03:36:56;12.57;95.28
70851;DHT22;58475;49.662;9.636;2023-08-31T03:39:21;12.56;95.17
70851;DHT22;58475;49.662;9.636;2023-08-31T03:41:47;12.57;95.16
70851;DHT22;58475;49.662;9.636;2023-08-31T03:44:12;12.50;95.25
70851;DHT22;58475;49.662;9.636;2023-08-31T03:46:40;12.48;95.25
70851;DHT22;58475;49.662;9.636;2023-08-31T03:49:05;12.52;95.45
70851;DHT22;58475;49.662;9.636;2023-08-31T03:51:31;12.43;95.36
70851;DHT22;58475;49.662;9.636;2023-08-31T03:53:56;12.40;95.42
70851;DHT22;58475;49.662;9.636;2023-08-31T03:56:22;12.42;95.17
70851;DHT22;58475;49.662;9.636;2023-08-31T03:58:48;12.38;95.20
70851;DHT22;58475;49.662;9.636;2023-08-31T04:01:14;12.31;95.09
70851;DHT22;58475;49.662;9.636;2023-08-31T04:03:44;12.24;95.21
70851;DHT22;58475;49.662;9.636;2023-08-31T04:06:09;12.19;95.50
70851;DHT22;58475;49.662;9.636;2023-08-31T04:08:39;12.21;95.36
70851;DHT22;58475;49.662;9.636;2023-08-31T04:11:05;12.11;95.21
70851;DHT22;58475;49.662;9.636;2023-08-31T04:13:31;12.19;95.29
70851;DHT22;58475;49.662;9.636;2023-08-31T04:15:56;12.29;95.19
70851;DHT22;58475;49.662;9.636;2023-08-31T04:18:22;12.06;95.04
70851;DHT22;58475;49.662;9.636;2023-08-31T04:20:52;11.92;95.49
70851;DHT22;58475;49.662;9.636;2023-08-31T04:23:21;11.75;95.86
70851;DHT22;58475;49.662;9.636;2023-08-31T04:25:47;11.69;96.09
70851;DHT22;58475;49.662;9.636;2023-08-31T04:28:13;11.59;96.90
70851;DHT22;58475;49.662;9.636;2023-08-31T04:30:39;11.63;96.08
70851;DHT22;58475;49.662;9.636;2023-08-31T04:33:06;11.42;97.08
70851;DHT22;58475;49.662;9.636;2023-08-31T04:35:32;11.43;97.02
70851;DHT22;58475;49.662;9.636;2023-08-31T04:37:57;11.64;96.37
70851;DHT22;58475;49.662;9.636;2023-08-31T04:40:23;11.44;96.71
70851;DHT22;58475;49.662;9.636;2023-08-31T04:42:50;11.74;96.12
70851;DHT22;58475;49.662;9.636;2023-08-31T04:45:15;11.74;96.20
70851;DHT22;58475;49.662;9.636;2023-08-31T04:47:41;11.66;96.79
70851;DHT22;58475;49.662;9.636;2023-08-31T04:50:10;11.82;96.36
70851;DHT22;58475;49.662;9.636;2023-08-31T04:52:35;11.67;96.84
70851;DHT22;58475;49.662;9.636;2023-08-31T04:55:01;11.71;96.76
70851;DHT22;58475;49.662;9.636;2023-08-31T04:57:29;11.88;96.39
70851;DHT22;58475;49.662;9.636;2023-08-31T04:59:55;11.66;96.85
70851;DHT22;58475;49.662;9.636;2023-08-31T05:02:21;11.95;95.94
70851;DHT22;58475;49.662;9.636;2023-08-31T05:04:47;11.95;95.96
70851;DHT22;58475;49.662;9.636;2023-08-31T05:07:13;11.85;96.70
70851;DHT22;58475;49.662;9.636;2023-08-31T05:09:38;11.87;97.34
70851;DHT22;58475;49.662;9.636;2023-08-31T05:12:04;12.06;96.62
70851;DHT22;58475;49.662;9.636;2023-08-31T05:14:30;12.08;96.18
70851;DHT22;58475;49.662;9.636;2023-08-31T05:16:56;12.08;96.39
70851;DHT22;58475;49.662;9.636;2023-08-31T05:19:21;11.90;97.10
70851;DHT22;58475;49.662;9.636;2023-08-31T05:21:47;12.35;95.35
70851;DHT22;58475;49.662;9.636;2023-08-31T05:24:13;12.35;95.62
70851;DHT22;58475;49.662;9.636;2023-08-31T05:26:39;12.33;95.95
70851;DHT22;58475;49.662;9.636;2023-08-31T05:29:04;12.32;95.49
70851;DHT22;58475;49.662;9.636;2023-08-31T05:31:33;12.26;96.15
70851;DHT22;58475;49.662;9.636;2023-08-31T05:33:59;12.39;95.72
70851;DHT22;58475;49.662;9.636;2023-08-31T05:36:24;12.62;95.30
70851;DHT22;58475;49.662;9.636;2023-08-31T05:38:53;13.12;94.33
70851;DHT22;58475;49.662;9.636;2023-08-31T05:41:19;12.76;93.91
70851;DHT22;58475;49.662;9.636;2023-08-31T05:43:44;12.79;94.79
70851;DHT22;58475;49.662;9.636;2023-08-31T05:46:11;12.60;95.70
70851;DHT22;58475;49.662;9.636;2023-08-31T05:48:36;12.57;95.77
70851;DHT22;58475;49.662;9.636;2023-08-31T05:51:02;12.64;95.45
70851;DHT22;58475;49.662;9.636;2023-08-31T05:53:30;12.91;94.40
70851;DHT22;58475;49.662;9.636;2023-08-31T05:55:56;13.34;94.16
70851;DHT22;58475;49.662;9.636;2023-08-31T05:58:35;13.39;93.63
70851;DHT22;58475;49.662;9.636;2023-08-31T06:01:02;13.57;93.45
70851;DHT22;58475;49.662;9.636;2023-08-31T06:03:28;13.45;92.65
70851;DHT22;58475;49.662;9.636;2023-08-31T06:05:57;13.82;92.51
70851;DHT22;58475;49.662;9.636;2023-08-31T06:08:23;14.02;91.85
70851;DHT22;58475;49.662;9.636;2023-08-31T06:10:49;14.34;91.87
70851;DHT22;58475;49.662;9.636;2023-08-31T06:13:16;14.98;90.76
70851;DHT22;58475;49.662;9.636;2023-08-31T06:15:41;14.88;90.53
70851;DHT22;58475;49.662;9.636;2023-08-31T06:18:07;15.71;88.63
70851;DHT22;58475;49.662;9.636;2023-08-31T06:20:32;15.64;88.81
70851;DHT22;58475;49.662;9.636;2023-08-31T06:23:02;16.30;86.41
70851;DHT22;58475;49.662;9.636;2023-08-31T06:25:27;16.42;87.21
70851;DHT22;58475;49.662;9.636;2023-08-31T06:27:53;16.81;84.87
70851;DHT22;58475;49.662;9.636;2023-08-31T06:30:18;17.03;84.70
70851;DHT22;58475;49.662;9.636;2023-08-31T06:32:45;17.07;82.26
70851;DHT22;58475;49.662;9.636;2023-08-31T06:35:11;16.66;81.39
70851;DHT22;58475;49.662;9.636;2023-08-31T06:37:46;16.67;82.03
70851;DHT22;58475;49.662;9.636;2023-08-31T06:40:12;16.17;81.98
70851;DHT22;58475;49.662;9.636;2023-08-31T06:42:38;16.96;81.98
70851;DHT22;58475;49.662;9.636;2023-08-31T06:45:04;16.99;81.72
70851;DHT22;58475;49.662;9.636;2023-08-31T06:47:30;17.44;81.50
70851;DHT22;58475;49.662;9.636;2023-08-31T06:49:56;17.23;80.68
70851;DHT22;58475;49.662;9.636;2023-08-31T06:52:23;17.83;79.95
70851;DHT22;58475;49.662;9.636;2023-08-31T06:54:49;18.13;78.87
70851;DHT22;58475;49.662;9.636;2023-08-31T06:57:15;17.97;78.84
70851;DHT22;58475;49.662;9.636;2023-08-31T06:59:40;18.57;77.35
70851;DHT22;58475;49.662;9.636;2023-08-31T07:02:06;18.54;76.70
70851;DHT22;58475;49.662;9.636;2023-08-31T07:04:31;18.30;77.62
70851;DHT22;58475;49.662;9.636;2023-08-31T07:06:56;17.78;76.48
70851;DHT22;58475;49.662;9.636;2023-08-31T07:09:22;18.54;74.92
70851;DHT22;58475;49.662;9.636;2023-08-31T07:11:47;18.07;75.10
70851;DHT22;58475;49.662;9.636;2023-08-31T07:14:13;18.10;74.69
70851;DHT22;58475;49.662;9.636;2023-08-31T07:16:38;19.09;74.20
70851;DHT22;58475;49.662;9.636;2023-08-31T07:19:04;19.06;73.90
70851;DHT22;58475;49.662;9.636;2023-08-31T07:21:29;19.32;71.45
70851;DHT22;58475;49.662;9.636;2023-08-31T07:23:55;18.69;68.37
70851;DHT22;58475;49.662;9.636;2023-08-31T07:26:21;18.96;71.24
70851;DHT22;58475;49.662;9.636;2023-08-31T07:28:47;18.91;66.56
70851;DHT22;58475;49.662;9.636;2023-08-31T07:31:12;18.75;68.50
70851;DHT22;58475;49.662;9.636;2023-08-31T07:33:38;18.98;68.12
70851;DHT22;58475;49.662;9.636;2023-08-31T07:36:04;18.33;67.97
70851;DHT22;58475;49.662;9.636;2023-08-31T07:38:31;18.26;67.96
70851;DHT22;58475;49.662;9.636;2023-08-31T07:40:57;18.75;67.36
70851;DHT22;58475;49.662;9.636;2023-08-31T07:43:23;18.05;67.63
70851;DHT22;58475;49.662;9.636;2023-08-31T07:45:49;18.36;66.86
70851;DHT22;58475;49.662;9.636;2023-08-31T07:48:15;19.05;68.35
70851;DHT22;58475;49.662;9.636;2023-08-31T07:50:41;18.95;65.50
70851;DHT22;58475;49.662;9.636;2023-08-31T07:53:07;18.87;67.94
70851;DHT22;58475;49.662;9.636;2023-08-31T07:55:33;18.85;66.31
70851;DHT22;58475;49.662;9.636;2023-08-31T07:57:58;18.91;67.88
70851;DHT22;58475;49.662;9.636;2023-08-31T08:00:24;19.52;67.84
70851;DHT22;58475;49.662;9.636;2023-08-31T08:02:52;19.62;66.51
70851;DHT22;58475;49.662;9.636;2023-08-31T08:05:18;19.32;64.91
70851;DHT22;58475;49.662;9.636;2023-08-31T08:07:44;19.77;65.10
70851;DHT22;58475;49.662;9.636;2023-08-31T08:10:11;19.75;63.43
70851;DHT22;58475;49.662;9.636;2023-08-31T08:12:41;19.18;63.38
70851;DHT22;58475;49.662;9.636;2023-08-31T08:15:13;18.78;65.00
70851;DHT22;58475;49.662;9.636;2023-08-31T08:17:38;18.65;65.77
70851;DHT22;58475;49.662;9.636;2023-08-31T08:20:06;19.05;62.55
70851;DHT22;58475;49.662;9.636;2023-08-31T08:22:31;19.40;64.04
70851;DHT22;58475;49.662;9.636;2023-08-31T08:24:57;19.78;63.05
70851;DHT22;58475;49.662;9.636;2023-08-31T08:27:22;20.26;60.79
70851;DHT22;58475;49.662;9.636;2023-08-31T08:29:48;19.81;61.77
70851;DHT22;58475;49.662;9.636;2023-08-31T08:32:13;19.67;63.61
70851;DHT22;58475;49.662;9.636;2023-08-31T08:34:39;20.57;62.67
70851;DHT22;58475;49.662;9.636;2023-08-31T08:37:04;20.18;60.12
70851;DHT22;58475;49.662;9.636;2023-08-31T08:39:30;20.28;61.97
70851;DHT22;58475;49.662;9.636;2023-08-31T08:41:58;20.59;60.29
70851;DHT22;58475;49.662;9.636;2023-08-31T08:44:32;21.03;60.79
70851;DHT22;58475;49.662;9.636;2023-08-31T08:46:59;20.03;62.63
70851;DHT22;58475;49.662;9.636;2023-08-31T08:49:26;19.97;60.23
70851;DHT22;58475;49.662;9.636;2023-08-31T08:51:52;19.22;63.77
70851;DHT22;58475;49.662;9.636;2023-08-31T08:54:18;18.99;63.10
70851;DHT22;58475;49.662;9.636;2023-08-31T08:56:45;18.68;63.85
70851;DHT22;58475;49.662;9.636;2023-08-31T08:59:11;18.65;62.91
70851;DHT22;58475;49.662;9.636;2023-08-31T09:01:39;19.90;61.87
70851;DHT22;58475;49.662;9.636;2023-08-31T09:04:05;20.73;59.14
70851;DHT22;58475;49.662;9.636;2023-08-31T09:06:34;20.11;58.58
70851;DHT22;58475;49.662;9.636;2023-08-31T09:09:01;20.75;58.82
70851;DHT22;58475;49.662;9.636;2023-08-31T09:11:26;20.63;58.42
70851;DHT22;58475;49.662;9.636;2023-08-31T09:13:52;19.85;58.55
70851;DHT22;58475;49.662;9.636;2023-08-31T09:16:28;20.52;58.83
70851;DHT22;58475;49.662;9.636;2023-08-31T09:18:55;20.32;57.55
70851;DHT22;58475;49.662;9.636;2023-08-31T09:21:21;20.72;59.83
70851;DHT22;58475;49.662;9.636;2023-08-31T09:23:55;21.24;59.00
70851;DHT22;58475;49.662;9.636;2023-08-31T09:26:21;20.48;60.61
70851;DHT22;58475;49.662;9.636;2023-08-31T09:28:49;21.51;58.91
70851;DHT22;58475;49.662;9.636;2023-08-31T09:31:14;21.82;58.47
70851;DHT22;58475;49.662;9.636;2023-08-31T09:33:51;21.00;57.65
70851;DHT22;58475;49.662;9.636;2023-08-31T09:36:17;19.94;60.27
70851;DHT22;58475;49.662;9.636;2023-08-31T09:38:44;20.87;58.14
70851;DHT22;58475;49.662;9.636;2023-08-31T09:41:09;21.00;57.44
70851;DHT22;58475;49.662;9.636;2023-08-31T09:43:35;21.48;57.24
70851;DHT22;58475;49.662;9.636;2023-08-31T09:46:04;19.84;59.31
70851;DHT22;58475;49.662;9.636;2023-08-31T09:48:30;19.75;60.72
70851;DHT22;58475;49.662;9.636;2023-08-31T09:50:56;19.91;60.17
70851;DHT22;58475;49.662;9.636;2023-08-31T09:53:29;19.45;59.66
70851;DHT22;58475;49.662;9.636;2023-08-31T09:55:54;19.52;63.01
70851;DHT22;58475;49.662;9.636;2023-08-31T09:58:21;19.64;62.41
70851;DHT22;58475;49.662;9.636;2023-08-31T10:00:49;19.90;60.34
70851;DHT22;58475;49.662;9.636;2023-08-31T10:03:15;19.94;60.90
70851;DHT22;58475;49.662;9.636;2023-08-31T10:05:45;19.97;61.77
70851;DHT22;58475;49.662;9.636;2023-08-31T10:08:14;19.57;59.90
70851;DHT22;58475;49.662;9.636;2023-08-31T10:10:40;19.64;60.61
70851;DHT22;58475;49.662;9.636;2023-08-31T10:13:06;20.66;61.92
70851;DHT22;58475;49.662;9.636;2023-08-31T10:15:34;21.26;57.24
70851;DHT22;58475;49.662;9.636;2023-08-31T10:18:00;21.41;60.11
70851;DHT22;58475;49.662;9.636;2023-08-31T10:20:26;21.65;57.76
70851;DHT22;58475;49.662;9.636;2023-08-31T10:23:03;21.77;56.93
70851;DHT22;58475;49.662;9.636;2023-08-31T10:28:21;21.00;56.72
70851;DHT22;58475;49.662;9.636;2023-08-31T10:31:06;20.42;57.27
70851;DHT22;58475;49.662;9.636;2023-08-31T10:33:45;21.52;60.44
70851;DHT22;58475;49.662;9.636;2023-08-31T10:36:18;22.02;56.90
70851;DHT22;58475;49.662;9.636;2023-08-31T10:41:23;21.40;56.82
70851;DHT22;58475;49.662;9.636;2023-08-31T10:43:55;21.82;57.04
70851;DHT22;58475;49.662;9.636;2023-08-31T10:46:30;22.53;56.33
70851;DHT22;58475;49.662;9.636;2023-08-31T10:51:31;22.63;57.23
70851;DHT22;58475;49.662;9.636;2023-08-31T10:59:49;22.46;55.40
70851;DHT22;58475;49.662;9.636;2023-08-31T11:02:37;23.01;56.03
70851;DHT22;58475;49.662;9.636;2023-08-31T11:05:16;23.46;54.72
70851;DHT22;58475;49.662;9.636;2023-08-31T11:07:44;23.71;57.02
70851;DHT22;58475;49.662;9.636;2023-08-31T11:12:36;21.06;57.05
70851;DHT22;58475;49.662;9.636;2023-08-31T11:15:02;21.03;57.64
70851;DHT22;58475;49.662;9.636;2023-08-31T11:17:31;20.82;59.80
70851;DHT22;58475;49.662;9.636;2023-08-31T11:20:00;20.68;61.53
70851;DHT22;58475;49.662;9.636;2023-08-31T11:22:26;20.48;60.36
70851;DHT22;58475;49.662;9.636;2023-08-31T11:24:52;20.14;59.53
70851;DHT22;58475;49.662;9.636;2023-08-31T11:27:21;20.42;59.67
70851;DHT22;58475;49.662;9.636;2023-08-31T11:29:47;20.36;58.86
70851;DHT22;58475;49.662;9.636;2023-08-31T11:32:13;20.43;59.47
70851;DHT22;58475;49.662;9.636;2023-08-31T11:34:43;20.38;58.79
70851;DHT22;58475;49.662;9.636;2023-08-31T11:37:09;20.17;59.11
70851;DHT22;58475;49.662;9.636;2023-08-31T11:39:37;19.88;59.88
70851;DHT22;58475;49.662;9.636;2023-08-31T11:42:02;19.87;60.16
70851;DHT22;58475;49.662;9.636;2023-08-31T11:44:28;20.20;61.59
70851;DHT22;58475;49.662;9.636;2023-08-31T11:46:54;20.35;60.60
70851;DHT22;58475;49.662;9.636;2023-08-31T11:49:20;20.38;60.21
70851;DHT22;58475;49.662;9.636;2023-08-31T11:51:47;20.52;59.24
70851;DHT22;58475;49.662;9.636;2023-08-31T11:54:16;20.72;59.60
70851;DHT22;58475;49.662;9.636;2023-08-31T11:56:43;20.68;60.43
70851;DHT22;58475;49.662;9.636;2023-08-31T11:59:14;20.39;58.74
70851;DHT22;58475;49.662;9.636;2023-08-31T12:01:42;20.55;58.86
70851;DHT22;58475;49.662;9.636;2023-08-31T12:04:21;20.43;58.70
70851;DHT22;58475;49.662;9.636;2023-08-31T12:06:51;20.73;57.89
70851;DHT22;58475;49.662;9.636;2023-08-31T12:09:17;20.76;58.16
70851;DHT22;58475;49.662;9.636;2023-08-31T12:11:49;21.07;60.83
70851;DHT22;58475;49.662;9.636;2023-08-31T12:14:24;21.21;58.55
70851;DHT22;58475;49.662;9.636;2023-08-31T12:16:50;21.13;58.95
70851;DHT22;58475;49.662;9.636;2023-08-31T12:19:16;21.51;55.03
70851;DHT22;58475;49.662;9.636;2023-08-31T12:21:43;21.91;55.80
70851;DHT22;58475;49.662;9.636;2023-08-31T12:24:10;21.33;57.68
70851;DHT22;58475;49.662;9.636;2023-08-31T12:26:35;20.84;57.92
70851;DHT22;58475;49.662;9.636;2023-08-31T12:29:02;20.51;57.81
70851;DHT22;58475;49.662;9.636;2023-08-31T12:31:30;20.18;61.14
70851;DHT22;58475;49.662;9.636;2023-08-31T12:33:55;20.21;59.51
70851;DHT22;58475;49.662;9.636;2023-08-31T12:36:21;19.85;59.39
70851;DHT22;58475;49.662;9.636;2023-08-31T12:38:46;19.83;59.14
70851;DHT22;58475;49.662;9.636;2023-08-31T12:41:12;19.90;59.83
70851;DHT22;58475;49.662;9.636;2023-08-31T12:43:37;19.84;59.21
70851;DHT22;58475;49.662;9.636;2023-08-31T12:46:04;20.29;59.74
70851;DHT22;58475;49.662;9.636;2023-08-31T12:48:33;20.03;58.89
70851;DHT22;58475;49.662;9.636;2023-08-31T12:51:07;20.22;56.95
70851;DHT22;58475;49.662;9.636;2023-08-31T12:53:37;20.77;58.92
70851;DHT22;58475;49.662;9.636;2023-08-31T12:56:03;21.48;57.79
70851;DHT22;58475;49.662;9.636;2023-08-31T12:58:31;21.45;54.57
70851;DHT22;58475;49.662;9.636;2023-08-31T13:00:58;21.65;55.73
70851;DHT22;58475;49.662;9.636;2023-08-31T13:03:25;21.33;57.64
70851;DHT22;58475;49.662;9.636;2023-08-31T13:05:51;21.06;55.49
70851;DHT22;58475;49.662;9.636;2023-08-31T13:08:16;21.04;57.90
70851;DHT22;58475;49.662;9.636;2023-08-31T13:10:42;21.24;57.14
70851;DHT22;58475;49.662;9.636;2023-08-31T13:13:07;21.17;59.71
70851;DHT22;58475;49.662;9.636;2023-08-31T13:15:33;20.87;57.86
70851;DHT22;58475;49.662;9.636;2023-08-31T13:17:59;20.55;57.21
70851;DHT22;58475;49.662;9.636;2023-08-31T13:20:25;20.62;57.99
70851;DHT22;58475;49.662;9.636;2023-08-31T13:22:52;20.62;57.06
70851;DHT22;58475;49.662;9.636;2023-08-31T13:25:18;20.26;58.25
70851;DHT22;58475;49.662;9.636;2023-08-31T13:27:43;20.15;58.13
70851;DHT22;58475;49.662;9.636;2023-08-31T13:30:10;19.94;58.37
70851;DHT22;58475;49.662;9.636;2023-08-31T13:32:38;19.91;56.92
70851;DHT22;58475;49.662;9.636;2023-08-31T13:35:03;19.90;57.89
70851;DHT22;58475;49.662;9.636;2023-08-31T13:37:40;19.93;57.33
70851;DHT22;58475;49.662;9.636;2023-08-31T13:40:12;20.26;57.56
70851;DHT22;58475;49.662;9.636;2023-08-31T13:42:53;20.59;57.53
70851;DHT22;58475;49.662;9.636;2023-08-31T13:45:19;20.65;57.06
70851;DHT22;58475;49.662;9.636;2023-08-31T13:47:44;20.97;56.10
70851;DHT22;58475;49.662;9.636;2023-08-31T13:50:15;20.93;55.77
70851;DHT22;58475;49.662;9.636;2023-08-31T13:52:40;21.54;57.53
70851;DHT22;58475;49.662;9.636;2023-08-31T13:55:07;20.87;55.76
70851;DHT22;58475;49.662;9.636;2023-08-31T13:57:32;21.20;57.48
70851;DHT22;58475;49.662;9.636;2023-08-31T13:59:58;21.68;59.16
70851;DHT22;58475;49.662;9.636;2023-08-31T14:02:23;22.01;55.64
70851;DHT22;58475;49.662;9.636;2023-08-31T14:04:49;22.08;53.71
70851;DHT22;58475;49.662;9.636;2023-08-31T14:07:14;21.95;55.01
70851;DHT22;58475;49.662;9.636;2023-08-31T14:09:40;21.42;55.17
70851;DHT22;58475;49.662;9.636;2023-08-31T14:12:06;21.17;55.22
70851;DHT22;58475;49.662;9.636;2023-08-31T14:14:31;21.02;56.37
70851;DHT22;58475;49.662;9.636;2023-08-31T14:16:57;21.21;55.96
70851;DHT22;58475;49.662;9.636;2023-08-31T14:19:23;21.33;55.31
70851;DHT22;58475;49.662;9.636;2023-08-31T14:21:48;21.17;55.82
70851;DHT22;58475;49.662;9.636;2023-08-31T14:24:14;21.21;53.72
70851;DHT22;58475;49.662;9.636;2023-08-31T14:26:39;20.69;53.56
70851;DHT22;58475;49.662;9.636;2023-08-31T14:29:05;21.24;53.46
70851;DHT22;58475;49.662;9.636;2023-08-31T14:31:30;21.78;53.24
70851;DHT22;58475;49.662;9.636;2023-08-31T14:33:56;21.68;50.56
70851;DHT22;58475;49.662;9.636;2023-08-31T14:36:22;21.93;51.79
70851;DHT22;58475;49.662;9.636;2023-08-31T14:38:47;21.82;52.20
70851;DHT22;58475;49.662;9.636;2023-08-31T14:41:13;21.48;52.44
70851;DHT22;58475;49.662;9.636;2023-08-31T14:43:38;21.50;52.88
70851;DHT22;58475;49.662;9.636;2023-08-31T14:46:04;21.42;52.59
70851;DHT22;58475;49.662;9.636;2023-08-31T14:48:31;21.91;53.48
70851;DHT22;58475;49.662;9.636;2023-08-31T14:50:57;21.58;54.06
70851;DHT22;58475;49.662;9.636;2023-08-31T14:53:29;21.04;54.62
70851;DHT22;58475;49.662;9.636;2023-08-31T14:55:54;20.89;55.75
70851;DHT22;58475;49.662;9.636;2023-08-31T14:58:20;21.19;54.47
70851;DHT22;58475;49.662;9.636;2023-08-31T15:00:46;20.96;55.90
70851;DHT22;58475;49.662;9.636;2023-08-31T15:03:11;20.94;55.03
70851;DHT22;58475;49.662;9.636;2023-08-31T15:05:37;20.87;56.86
70851;DHT22;58475;49.662;9.636;2023-08-31T15:08:06;20.43;55.34
70851;DHT22;58475;49.662;9.636;2023-08-31T15:10:32;20.87;56.05
70851;DHT22;58475;49.662;9.636;2023-08-31T15:12:58;21.41;55.44
70851;DHT22;58475;49.662;9.636;2023-08-31T15:15:25;21.59;55.83
70851;DHT22;58475;49.662;9.636;2023-08-31T15:17:51;21.34;55.67
70851;DHT22;58475;49.662;9.636;2023-08-31T15:20:17;21.41;55.14
70851;DHT22;58475;49.662;9.636;2023-08-31T15:22:42;21.65;55.41
70851;DHT22;58475;49.662;9.636;2023-08-31T15:25:08;21.79;55.36
70851;DHT22;58475;49.662;9.636;2023-08-31T15:27:34;21.57;55.34
70851;DHT22;58475;49.662;9.636;2023-08-31T15:30:00;20.93;56.20
70851;DHT22;58475;49.662;9.636;2023-08-31T15:32:25;20.35;57.33
70851;DHT22;58475;49.662;9.636;2023-08-31T15:34:51;20.39;58.23
70851;DHT22;58475;49.662;9.636;2023-08-31T15:37:17;19.95;58.21
70851;DHT22;58475;49.662;9.636;2023-08-31T15:39:42;20.08;58.12
70851;DHT22;58475;49.662;9.636;2023-08-31T15:42:08;20.05;58.16
70851;DHT22;58475;49.662;9.636;2023-08-31T15:44:40;19.78;59.08
70851;DHT22;58475;49.662;9.636;2023-08-31T15:47:05;19.94;59.47
70851;DHT22;58475;49.662;9.636;2023-08-31T15:49:31;20.03;59.51